sensor_id;sensor_type;location;lat;lon;timestamp;pressure;altitude;pressure_sealevel;temperature;humidity
74268;BME280;62638;51.362;12.472;2022-10-22T00:01:33;99769.75;;;12.84;100.00
74268;BME280;62638;51.362;12.472;2022-10-22T00:03:59;99762.69;;;12.83;100.00
74268;BME280;62638;51.362;12.472;2022-10-22T00:06:25;99772.63;;;12.58;100.00
74268;BME280;62638;51.362;12.472;2022-10-22T00:08:50;99770.78;;;12.59;100.00
74268;BME280;62638;51.362;12.472;2022-10-22T00:11:17;99766.56;;;12.48;100.00
74268;BME280;62638;51.362;12.472;2022-10-22T00:13:44;99773.97;;;12.54;100.00
74268;BME280;62638;51.362;12.472;2022-10-22T00:16:09;99775.94;;;12.68;100.00
74268;BME280;62638;51.362;12.472;2022-10-22T00:18:35;99771.41;;;12.77;100.00
74268;BME280;62638;51.362;12.472;2022-10-22T00:21:01;99764.38;;;12.84;100.00
74268;BME280;62638;51.362;12.472;2022-10-22T00:23:26;99773.75;;;12.88;100.00
74268;BME280;62638;51.362;12.472;2022-10-22T00:25:52;99773.25;;;13.01;100.00
74268;BME280;62638;51.362;12.472;2022-10-22T00:28:18;99769.03;;;13.06;100.00
74268;BME280;62638;51.362;12.472;2022-10-22T00:30:43;99770.69;;;13.07;100.00
74268;BME280;62638;51.362;12.472;2022-10-22T00:33:09;99777.28;;;13.13;100.00
74268;BME280;62638;51.362;12.472;2022-10-22T00:35:34;99768.69;;;13.09;100.00
74268;BME280;62638;51.362;12.472;2022-10-22T00:37:59;99772.09;;;13.11;100.00
74268;BME280;62638;51.362;12.472;2022-10-22T00:40:25;99777.94;;;13.15;100.00
74268;BME280;62638;51.362;12.472;2022-10-22T00:42:50;99786.00;;;13.15;100.00
74268;BME280;62638;51.362;12.472;2022-10-22T00:45:19;99797.09;;;13.20;100.00
74268;BME280;62638;51.362;12.472;2022-10-22T00:50:29;99814.34;;;13.34;100.00
74268;BME280;62638;51.362;12.472;2022-10-22T00:52:56;99800.59;;;13.37;100.00
74268;BME280;62638;51.362;12.472;2022-10-22T00:55:24;99788.50;;;13.33;100.00
74268;BME280;62638;51.362;12.472;2022-10-22T00:57:51;99775.69;;;13.35;100.00
74268;BME280;62638;51.362;12.472;2022-10-22T01:00:18;99780.91;;;13.36;100.00
74268;BME280;62638;51.362;12.472;2022-10-22T01:02:44;99781.56;;;13.38;100.00
74268;BME280;62638;51.362;12.472;2022-10-22T01:05:10;99790.31;;;13.40;100.00
74268;BME280;62638;51.362;12.472;2022-10-22T01:07:42;99790.28;;;13.48;100.00
74268;BME280;62638;51.362;12.472;2022-10-22T01:13:32;99773.97;;;13.50;100.00
74268;BME280;62638;51.362;12.472;2022-10-22T01:16:13;99780.72;;;13.46;100.00
74268;BME280;62638;51.362;12.472;2022-10-22T01:18:55;99776.13;;;13.54;100.00
74268;BME280;62638;51.362;12.472;2022-10-22T01:21:31;99778.47;;;13.57;100.00
74268;BME280;62638;51.362;12.472;2022-10-22T01:29:41;99770.03;;;13.60;100.00
74268;BME280;62638;51.362;12.472;2022-10-22T01:32:16;99773.56;;;13.61;100.00
74268;BME280;62638;51.362;12.472;2022-10-22T01:34:48;99770.72;;;13.62;100.00
74268;BME280;62638;51.362;12.472;2022-10-22T01:37:16;99768.34;;;13.68;100.00
74268;BME280;62638;51.362;12.472;2022-10-22T01:39:44;99766.31;;;13.70;100.00
74268;BME280;62638;51.362;12.472;2022-10-22T01:42:12;99770.00;;;13.69;100.00
74268;BME280;62638;51.362;12.472;2022-10-22T01:44:38;99766.66;;;13.67;100.00
74268;BME280;62638;51.362;12.472;2022-10-22T01:47:21;99772.53;;;13.70;100.00
74268;BME280;62638;51.362;12.472;2022-10-22T01:50:13;99777.06;;;13.70;100.00
74268;BME280;62638;51.362;12.472;2022-10-22T01:58:33;99775.22;;;13.70;100.00
74268;BME280;62638;51.362;12.472;2022-10-22T02:01:12;99774.91;;;13.65;100.00
74268;BME280;62638;51.362;12.472;2022-10-22T02:03:45;99775.38;;;13.69;100.00
74268;BME280;62638;51.362;12.472;2022-10-22T02:06:19;99770.72;;;13.62;100.00
74268;BME280;62638;51.362;12.472;2022-10-22T02:08:46;99761.00;;;13.53;100.00
74268;BME280;62638;51.362;12.472;2022-10-22T02:11:13;99758.97;;;13.55;100.00
74268;BME280;62638;51.362;12.472;2022-10-22T02:13:43;99776.47;;;13.51;100.00
74268;BME280;62638;51.362;12.472;2022-10-22T02:16:14;99765.38;;;13.54;100.00
74268;BME280;62638;51.362;12.472;2022-10-22T02:18:43;99770.75;;;13.54;100.00
74268;BME280;62638;51.362;12.472;2022-10-22T02:21:09;99761.88;;;13.46;100.00
74268;BME280;62638;51.362;12.472;2022-10-22T02:23:34;99767.47;;;13.36;100.00
74268;BME280;62638;51.362;12.472;2022-10-22T02:26:14;99767.50;;;13.28;100.00
74268;BME280;62638;51.362;12.472;2022-10-22T02:28:51;99757.75;;;13.27;100.00
74268;BME280;62638;51.362;12.472;2022-10-22T02:31:27;99747.69;;;13.13;100.00
74268;BME280;62638;51.362;12.472;2022-10-22T02:33:55;99743.31;;;13.20;100.00
74268;BME280;62638;51.362;12.472;2022-10-22T02:36:22;99752.72;;;13.08;100.00
74268;BME280;62638;51.362;12.472;2022-10-22T02:38:50;99745.00;;;13.05;100.00
74268;BME280;62638;51.362;12.472;2022-10-22T02:41:16;99746.50;;;13.07;100.00
74268;BME280;62638;51.362;12.472;2022-10-22T02:43:44;99744.00;;;13.06;100.00
74268;BME280;62638;51.362;12.472;2022-10-22T02:46:13;99748.69;;;13.04;100.00
74268;BME280;62638;51.362;12.472;2022-10-22T02:48:38;99747.53;;;13.06;100.00
74268;BME280;62638;51.362;12.472;2022-10-22T02:51:04;99743.63;;;13.17;100.00
74268;BME280;62638;51.362;12.472;2022-10-22T02:53:29;99752.91;;;13.14;100.00
74268;BME280;62638;51.362;12.472;2022-10-22T02:55:54;99743.00;;;13.15;100.00
74268;BME280;62638;51.362;12.472;2022-10-22T02:58:20;99752.38;;;13.19;100.00
74268;BME280;62638;51.362;12.472;2022-10-22T03:00:45;99745.00;;;13.13;100.00
74268;BME280;62638;51.362;12.472;2022-10-22T03:03:10;99740.31;;;13.15;100.00
74268;BME280;62638;51.362;12.472;2022-10-22T03:05:35;99750.34;;;13.21;100.00
74268;BME280;62638;51.362;12.472;2022-10-22T03:08:01;99761.09;;;13.21;100.00
74268;BME280;62638;51.362;12.472;2022-10-22T03:10:26;99766.47;;;13.21;100.00
74268;BME280;62638;51.362;12.472;2022-10-22T03:12:51;99760.63;;;13.17;100.00
74268;BME280;62638;51.362;12.472;2022-10-22T03:15:16;99760.25;;;13.21;100.00
74268;BME280;62638;51.362;12.472;2022-10-22T03:17:42;99763.16;;;13.19;100.00
74268;BME280;62638;51.362;12.472;2022-10-22T03:20:07;99771.03;;;13.21;100.00
74268;BME280;62638;51.362;12.472;2022-10-22T03:22:34;99768.53;;;13.19;100.00
74268;BME280;62638;51.362;12.472;2022-10-22T03:25:04;99764.81;;;13.12;100.00
74268;BME280;62638;51.362;12.472;2022-10-22T03:27:32;99765.03;;;13.10;100.00
74268;BME280;62638;51.362;12.472;2022-10-22T03:30:00;99775.25;;;13.07;100.00
74268;BME280;62638;51.362;12.472;2022-10-22T03:32:25;99788.34;;;13.10;100.00
74268;BME280;62638;51.362;12.472;2022-10-22T03:34:51;99791.69;;;13.04;100.00
74268;BME280;62638;51.362;12.472;2022-10-22T03:37:17;99787.66;;;13.08;100.00
74268;BME280;62638;51.362;12.472;2022-10-22T03:39:42;99780.09;;;13.03;100.00
74268;BME280;62638;51.362;12.472;2022-10-22T03:42:08;99787.69;;;13.00;100.00
74268;BME280;62638;51.362;12.472;2022-10-22T03:44:35;99782.13;;;13.01;100.00
74268;BME280;62638;51.362;12.472;2022-10-22T03:47:02;99781.13;;;13.02;100.00
74268;BME280;62638;51.362;12.472;2022-10-22T03:49:28;99777.59;;;13.02;100.00
74268;BME280;62638;51.362;12.472;2022-10-22T03:51:53;99786.31;;;13.04;100.00
74268;BME280;62638;51.362;12.472;2022-10-22T03:54:18;99780.81;;;12.97;100.00
74268;BME280;62638;51.362;12.472;2022-10-22T03:56:44;99805.66;;;12.99;100.00
74268;BME280;62638;51.362;12.472;2022-10-22T03:59:09;99799.78;;;12.96;100.00
74268;BME280;62638;51.362;12.472;2022-10-22T04:01:34;99797.94;;;12.96;100.00
74268;BME280;62638;51.362;12.472;2022-10-22T04:04:00;99804.66;;;13.00;100.00
74268;BME280;62638;51.362;12.472;2022-10-22T04:06:25;99794.22;;;13.05;100.00
74268;BME280;62638;51.362;12.472;2022-10-22T04:08:50;99792.75;;;13.03;100.00
74268;BME280;62638;51.362;12.472;2022-10-22T04:11:16;99797.91;;;13.04;100.00
74268;BME280;62638;51.362;12.472;2022-10-22T04:13:42;99801.81;;;13.02;100.00
74268;BME280;62638;51.362;12.472;2022-10-22T04:16:13;99801.78;;;13.10;100.00
74268;BME280;62638;51.362;12.472;2022-10-22T04:18:39;99798.94;;;13.03;100.00
74268;BME280;62638;51.362;12.472;2022-10-22T04:21:06;99805.50;;;13.01;100.00
74268;BME280;62638;51.362;12.472;2022-10-22T04:23:32;99800.44;;;13.06;100.00
74268;BME280;62638;51.362;12.472;2022-10-22T04:25:58;99807.50;;;13.07;100.00
74268;BME280;62638;51.362;12.472;2022-10-22T04:28:24;99808.53;;;12.98;100.00
74268;BME280;62638;51.362;12.472;2022-10-22T04:30:49;99802.97;;;12.91;100.00
74268;BME280;62638;51.362;12.472;2022-10-22T04:33:15;99807.19;;;12.86;100.00
74268;BME280;62638;51.362;12.472;2022-10-22T04:35:40;99816.94;;;12.87;100.00
74268;BME280;62638;51.362;12.472;2022-10-22T04:38:05;99812.25;;;12.89;100.00
74268;BME280;62638;51.362;12.472;2022-10-22T04:40:30;99821.78;;;12.91;100.00
74268;BME280;62638;51.362;12.472;2022-10-22T04:42:56;99825.69;;;12.89;100.00
74268;BME280;62638;51.362;12.472;2022-10-22T04:45:21;99816.28;;;12.85;100.00
74268;BME280;62638;51.362;12.472;2022-10-22T04:47:46;99818.78;;;12.78;100.00
74268;BME280;62638;51.362;12.472;2022-10-22T04:50:12;99824.66;;;12.73;100.00
74268;BME280;62638;51.362;12.472;2022-10-22T04:52:37;99826.34;;;12.74;100.00
74268;BME280;62638;51.362;12.472;2022-10-22T04:55:03;99819.97;;;12.84;100.00
74268;BME280;62638;51.362;12.472;2022-10-22T04:57:29;99812.91;;;12.83;100.00
74268;BME280;62638;51.362;12.472;2022-10-22T04:59:55;99817.94;;;12.86;100.00
74268;BME280;62638;51.362;12.472;2022-10-22T05:02:20;99816.59;;;12.82;100.00
74268;BME280;62638;51.362;12.472;2022-10-22T05:04:46;99808.72;;;12.88;100.00
74268;BME280;62638;51.362;12.472;2022-10-22T05:07:11;99804.50;;;12.86;100.00
74268;BME280;62638;51.362;12.472;2022-10-22T05:09:36;99805.19;;;12.88;100.00
74268;BME280;62638;51.362;12.472;2022-10-22T05:12:02;99799.47;;;12.83;100.00
74268;BME280;62638;51.362;12.472;2022-10-22T05:14:27;99802.34;;;12.81;100.00
74268;BME280;62638;51.362;12.472;2022-10-22T05:16:52;99812.06;;;12.74;100.00
74268;BME280;62638;51.362;12.472;2022-10-22T05:19:28;99817.94;;;12.78;100.00
74268;BME280;62638;51.362;12.472;2022-10-22T05:21:57;99817.28;;;12.76;100.00
74268;BME280;62638;51.362;12.472;2022-10-22T05:24:23;99819.97;;;12.84;100.00
74268;BME280;62638;51.362;12.472;2022-10-22T05:26:52;99817.78;;;12.87;100.00
74268;BME280;62638;51.362;12.472;2022-10-22T05:29:18;99826.69;;;12.88;100.00
74268;BME280;62638;51.362;12.472;2022-10-22T05:31:43;99831.22;;;12.87;100.00
74268;BME280;62638;51.362;12.472;2022-10-22T05:34:09;99833.06;;;12.87;100.00
74268;BME280;62638;51.362;12.472;2022-10-22T05:36:35;99838.75;;;12.92;100.00
74268;BME280;62638;51.362;12.472;2022-10-22T05:39:00;99835.72;;;12.95;100.00
74268;BME280;62638;51.362;12.472;2022-10-22T05:41:26;99841.28;;;12.93;100.00
74268;BME280;62638;51.362;12.472;2022-10-22T05:43:56;99846.84;;;12.92;100.00
74268;BME280;62638;51.362;12.472;2022-10-22T05:46:25;99850.53;;;12.91;100.00
74268;BME280;62638;51.362;12.472;2022-10-22T05:48:56;99846.47;;;12.95;100.00
74268;BME280;62638;51.362;12.472;2022-10-22T05:51:22;99855.88;;;12.99;100.00
74268;BME280;62638;51.362;12.472;2022-10-22T05:53:57;99851.34;;;12.99;100.00
74268;BME280;62638;51.362;12.472;2022-10-22T05:56:24;99861.94;;;13.01;100.00
74268;BME280;62638;51.362;12.472;2022-10-22T05:58:50;99849.50;;;13.00;100.00
74268;BME280;62638;51.362;12.472;2022-10-22T06:01:23;99849.03;;;13.12;100.00
74268;BME280;62638;51.362;12.472;2022-10-22T06:03:52;99850.69;;;13.22;100.00
74268;BME280;62638;51.362;12.472;2022-10-22T06:06:24;99854.38;;;13.21;100.00
74268;BME280;62638;51.362;12.472;2022-10-22T06:08:51;99864.63;;;13.25;100.00
74268;BME280;62638;51.362;12.472;2022-10-22T06:11:18;99876.41;;;13.32;100.00
74268;BME280;62638;51.362;12.472;2022-10-22T06:13:45;99878.25;;;13.32;100.00
74268;BME280;62638;51.362;12.472;2022-10-22T06:16:10;99887.84;;;13.26;100.00
74268;BME280;62638;51.362;12.472;2022-10-22T06:18:36;99890.50;;;13.34;100.00
74268;BME280;62638;51.362;12.472;2022-10-22T06:21:09;99893.03;;;13.36;100.00
74268;BME280;62638;51.362;12.472;2022-10-22T06:23:36;99900.75;;;13.39;100.00
74268;BME280;62638;51.362;12.472;2022-10-22T06:26:02;99905.13;;;13.40;100.00
74268;BME280;62638;51.362;12.472;2022-10-22T06:28:28;99902.44;;;13.40;100.00
74268;BME280;62638;51.362;12.472;2022-10-22T06:30:53;99903.13;;;13.50;100.00
74268;BME280;62638;51.362;12.472;2022-10-22T06:33:19;99900.91;;;13.53;100.00
74268;BME280;62638;51.362;12.472;2022-10-22T06:35:44;99905.63;;;13.51;100.00
74268;BME280;62638;51.362;12.472;2022-10-22T06:38:10;99906.09;;;13.55;100.00
74268;BME280;62638;51.362;12.472;2022-10-22T06:40:35;99914.69;;;13.67;100.00
74268;BME280;62638;51.362;12.472;2022-10-22T06:43:01;99917.03;;;13.70;100.00
74268;BME280;62638;51.362;12.472;2022-10-22T06:45:26;99918.88;;;13.69;100.00
74268;BME280;62638;51.362;12.472;2022-10-22T06:47:52;99923.25;;;13.70;100.00
74268;BME280;62638;51.362;12.472;2022-10-22T06:50:18;99924.09;;;13.71;100.00
74268;BME280;62638;51.362;12.472;2022-10-22T06:52:43;99921.00;;;13.82;100.00
74268;BME280;62638;51.362;12.472;2022-10-22T06:55:09;99919.16;;;13.82;100.00
74268;BME280;62638;51.362;12.472;2022-10-22T06:57:35;99928.56;;;13.86;100.00
74268;BME280;62638;51.362;12.472;2022-10-22T07:00:00;99932.94;;;13.87;100.00
74268;BME280;62638;51.362;12.472;2022-10-22T07:02:26;99935.13;;;13.92;100.00
74268;BME280;62638;51.362;12.472;2022-10-22T07:04:51;99933.44;;;13.91;100.00
74268;BME280;62638;51.362;12.472;2022-10-22T07:07:16;99942.19;;;13.93;100.00
74268;BME280;62638;51.362;12.472;2022-10-22T07:09:42;99941.69;;;13.97;100.00
74268;BME280;62638;51.362;12.472;2022-10-22T07:12:10;99945.88;;;14.00;100.00
74268;BME280;62638;51.362;12.472;2022-10-22T07:14:36;99948.22;;;14.03;100.00
74268;BME280;62638;51.362;12.472;2022-10-22T07:17:02;99953.41;;;14.13;100.00
74268;BME280;62638;51.362;12.472;2022-10-22T07:19:27;99955.72;;;14.16;100.00
74268;BME280;62638;51.362;12.472;2022-10-22T07:21:53;99963.28;;;14.20;100.00
74268;BME280;62638;51.362;12.472;2022-10-22T07:24:18;99960.59;;;14.20;100.00
74268;BME280;62638;51.362;12.472;2022-10-22T07:26:44;99976.06;;;14.26;100.00
74268;BME280;62638;51.362;12.472;2022-10-22T07:29:09;99984.00;;;14.28;100.00
74268;BME280;62638;51.362;12.472;2022-10-22T07:31:34;99981.59;;;14.33;100.00
74268;BME280;62638;51.362;12.472;2022-10-22T07:34:00;99984.84;;;14.36;100.00
74268;BME280;62638;51.362;12.472;2022-10-22T07:36:25;99982.16;;;14.36;100.00
74268;BME280;62638;51.362;12.472;2022-10-22T07:38:56;99990.00;;;14.46;100.00
74268;BME280;62638;51.362;12.472;2022-10-22T07:41:22;99983.75;;;14.45;100.00
74268;BME280;62638;51.362;12.472;2022-10-22T07:43:49;99993.53;;;14.46;100.00
74268;BME280;62638;51.362;12.472;2022-10-22T07:46:14;99988.94;;;14.55;100.00
74268;BME280;62638;51.362;12.472;2022-10-22T07:48:40;99997.22;;;14.53;100.00
74268;BME280;62638;51.362;12.472;2022-10-22T07:51:06;99991.59;;;14.63;100.00
74268;BME280;62638;51.362;12.472;2022-10-22T07:53:31;99995.81;;;14.66;100.00
74268;BME280;62638;51.362;12.472;2022-10-22T07:55:57;99989.22;;;14.68;100.00
74268;BME280;62638;51.362;12.472;2022-10-22T07:58:23;99996.66;;;14.66;100.00
74268;BME280;62638;51.362;12.472;2022-10-22T08:00:49;99998.16;;;14.69;100.00
74268;BME280;62638;51.362;12.472;2022-10-22T08:03:16;99992.59;;;14.70;100.00
74268;BME280;62638;51.362;12.472;2022-10-22T08:05:42;99997.97;;;14.70;100.00
74268;BME280;62638;51.362;12.472;2022-10-22T08:08:12;100006.53;;;14.74;99.52
74268;BME280;62638;51.362;12.472;2022-10-22T08:10:38;100006.91;;;14.71;99.59
74268;BME280;62638;51.362;12.472;2022-10-22T08:13:04;99998.81;;;14.71;99.74
74268;BME280;62638;51.362;12.472;2022-10-22T08:15:30;100006.53;;;14.74;99.09
74268;BME280;62638;51.362;12.472;2022-10-22T08:17:55;100015.28;;;14.76;99.24
74268;BME280;62638;51.362;12.472;2022-10-22T08:20:21;100020.03;;;14.74;99.06
74268;BME280;62638;51.362;12.472;2022-10-22T08:22:46;100021.88;;;14.73;98.97
74268;BME280;62638;51.362;12.472;2022-10-22T08:25:12;100016.00;;;14.70;98.73
74268;BME280;62638;51.362;12.472;2022-10-22T08:27:37;100023.09;;;14.71;98.37
74268;BME280;62638;51.362;12.472;2022-10-22T08:30:04;100024.56;;;14.73;97.87
74268;BME280;62638;51.362;12.472;2022-10-22T08:32:30;100023.72;;;14.73;97.83
74268;BME280;62638;51.362;12.472;2022-10-22T08:34:55;100030.31;;;14.70;98.40
74268;BME280;62638;51.362;12.472;2022-10-22T08:37:21;100026.94;;;14.68;98.15
74268;BME280;62638;51.362;12.472;2022-10-22T08:39:47;100031.16;;;14.71;97.91
74268;BME280;62638;51.362;12.472;2022-10-22T08:50:23;100041.59;;;14.74;96.75
74268;BME280;62638;51.362;12.472;2022-10-22T08:52:54;100043.75;;;14.78;95.56
74268;BME280;62638;51.362;12.472;2022-10-22T08:55:23;100044.28;;;14.74;96.27
74268;BME280;62638;51.362;12.472;2022-10-22T08:58:00;100057.78;;;14.74;96.80
74268;BME280;62638;51.362;12.472;2022-10-22T09:00:44;100056.09;;;14.73;96.30
74268;BME280;62638;51.362;12.472;2022-10-22T09:08:16;100061.75;;;14.86;95.33
74268;BME280;62638;51.362;12.472;2022-10-22T09:11:01;100066.63;;;14.90;94.40
74268;BME280;62638;51.362;12.472;2022-10-22T09:13:27;100069.63;;;14.95;94.31
74268;BME280;62638;51.362;12.472;2022-10-22T09:15:59;100067.25;;;15.01;94.09
74268;BME280;62638;51.362;12.472;2022-10-22T09:18:59;100078.00;;;15.09;93.48
74268;BME280;62638;51.362;12.472;2022-10-22T09:21:55;100079.09;;;15.22;92.65
74268;BME280;62638;51.362;12.472;2022-10-22T09:24:39;100084.78;;;15.27;91.28
74268;BME280;62638;51.362;12.472;2022-10-22T09:27:15;100083.38;;;15.39;90.61
74268;BME280;62638;51.362;12.472;2022-10-22T09:29:40;100088.00;;;15.54;89.53
74268;BME280;62638;51.362;12.472;2022-10-22T09:32:06;100082.97;;;15.51;89.44
74268;BME280;62638;51.362;12.472;2022-10-22T09:34:32;100089.91;;;15.53;89.18
74268;BME280;62638;51.362;12.472;2022-10-22T09:36:59;100095.03;;;15.63;88.83
74268;BME280;62638;51.362;12.472;2022-10-22T09:39:27;100092.47;;;15.69;87.48
74268;BME280;62638;51.362;12.472;2022-10-22T09:41:55;100095.28;;;16.13;85.74
74268;BME280;62638;51.362;12.472;2022-10-22T09:44:21;100097.56;;;16.39;84.33
74268;BME280;62638;51.362;12.472;2022-10-22T09:46:46;100103.84;;;16.69;83.29
74268;BME280;62638;51.362;12.472;2022-10-22T09:49:17;100103.91;;;17.05;80.75
74268;BME280;62638;51.362;12.472;2022-10-22T09:51:53;100112.75;;;17.13;79.18
74268;BME280;62638;51.362;12.472;2022-10-22T09:54:39;100110.97;;;17.20;80.32
74268;BME280;62638;51.362;12.472;2022-10-22T09:59:38;100114.44;;;17.14;78.66
74268;BME280;62638;51.362;12.472;2022-10-22T10:02:18;100113.28;;;17.38;78.23
74268;BME280;62638;51.362;12.472;2022-10-22T10:04:52;100112.00;;;17.55;78.01
74268;BME280;62638;51.362;12.472;2022-10-22T10:07:19;100119.81;;;18.07;76.73
74268;BME280;62638;51.362;12.472;2022-10-22T10:09:45;100114.72;;;17.98;74.63
74268;BME280;62638;51.362;12.472;2022-10-22T10:20:57;100128.22;;;18.68;72.39
74268;BME280;62638;51.362;12.472;2022-10-22T10:23:33;100113.78;;;18.33;71.42
74268;BME280;62638;51.362;12.472;2022-10-22T10:26:08;100120.75;;;18.49;73.14
74268;BME280;62638;51.362;12.472;2022-10-22T10:33:54;100125.09;;;19.53;71.12
74268;BME280;62638;51.362;12.472;2022-10-22T10:39:17;100128.81;;;18.98;70.22
74268;BME280;62638;51.362;12.472;2022-10-22T10:42:04;100132.59;;;19.03;69.94
74268;BME280;62638;51.362;12.472;2022-10-22T10:47:52;100126.44;;;19.29;69.38
74268;BME280;62638;51.362;12.472;2022-10-22T10:50:50;100118.56;;;19.41;68.00
74268;BME280;62638;51.362;12.472;2022-10-22T10:53:27;100124.75;;;19.22;68.77
74268;BME280;62638;51.362;12.472;2022-10-22T11:01:23;100127.84;;;19.66;67.99
74268;BME280;62638;51.362;12.472;2022-10-22T11:06:20;100131.59;;;19.59;66.54
74268;BME280;62638;51.362;12.472;2022-10-22T11:11:39;100130.19;;;19.96;66.01
74268;BME280;62638;51.362;12.472;2022-10-22T11:16:42;100129.78;;;20.18;65.41
74268;BME280;62638;51.362;12.472;2022-10-22T11:21:50;100130.41;;;20.07;64.53
74268;BME280;62638;51.362;12.472;2022-10-22T11:24:36;100134.00;;;20.41;64.50
74268;BME280;62638;51.362;12.472;2022-10-22T11:29:58;100137.97;;;20.45;62.88
74268;BME280;62638;51.362;12.472;2022-10-22T11:32:25;100128.75;;;20.39;61.47
74268;BME280;62638;51.362;12.472;2022-10-22T11:34:55;100134.41;;;20.51;61.43
74268;BME280;62638;51.362;12.472;2022-10-22T11:37:23;100129.69;;;20.97;61.45
74268;BME280;62638;51.362;12.472;2022-10-22T11:39:56;100133.63;;;21.14;61.24
74268;BME280;62638;51.362;12.472;2022-10-22T11:42:44;100136.00;;;20.84;59.99
74268;BME280;62638;51.362;12.472;2022-10-22T11:53:37;100128.31;;;20.03;61.81
74268;BME280;62638;51.362;12.472;2022-10-22T11:56:20;100131.84;;;19.83;61.76
74268;BME280;62638;51.362;12.472;2022-10-22T11:58:47;100135.00;;;20.26;61.49
74268;BME280;62638;51.362;12.472;2022-10-22T12:03:40;100136.69;;;20.21;61.12
74268;BME280;62638;51.362;12.472;2022-10-22T12:08:57;100133.75;;;20.09;61.45
74268;BME280;62638;51.362;12.472;2022-10-22T12:11:26;100147.94;;;19.85;61.91
74268;BME280;62638;51.362;12.472;2022-10-22T12:19:30;100141.72;;;20.50;61.24
74268;BME280;62638;51.362;12.472;2022-10-22T12:22:07;100144.25;;;20.52;61.32
74268;BME280;62638;51.362;12.472;2022-10-22T12:24:37;100150.53;;;20.52;60.77
74268;BME280;62638;51.362;12.472;2022-10-22T12:27:25;100155.91;;;19.93;62.20
74268;BME280;62638;51.362;12.472;2022-10-22T12:29:59;100156.06;;;19.59;64.02
74268;BME280;62638;51.362;12.472;2022-10-22T12:32:32;100157.78;;;19.86;62.59
74268;BME280;62638;51.362;12.472;2022-10-22T12:35:04;100151.09;;;19.88;63.11
74268;BME280;62638;51.362;12.472;2022-10-22T12:37:30;100141.50;;;20.19;62.31
74268;BME280;62638;51.362;12.472;2022-10-22T12:39:59;100160.72;;;19.98;62.83
74268;BME280;62638;51.362;12.472;2022-10-22T12:42:24;100146.94;;;20.06;62.62
74268;BME280;62638;51.362;12.472;2022-10-22T12:44:54;100142.53;;;19.91;63.58
74268;BME280;62638;51.362;12.472;2022-10-22T12:47:20;100149.47;;;19.40;64.10
74268;BME280;62638;51.362;12.472;2022-10-22T12:49:47;100144.13;;;19.60;64.31
74268;BME280;62638;51.362;12.472;2022-10-22T12:52:16;100136.22;;;19.71;64.23
74268;BME280;62638;51.362;12.472;2022-10-22T12:54:44;100136.84;;;19.67;63.37
74268;BME280;62638;51.362;12.472;2022-10-22T12:57:13;100141.13;;;19.41;63.74
74268;BME280;62638;51.362;12.472;2022-10-22T12:59:40;100141.81;;;19.63;64.47
74268;BME280;62638;51.362;12.472;2022-10-22T13:02:22;100140.56;;;19.59;63.80
74268;BME280;62638;51.362;12.472;2022-10-22T13:05:20;100138.63;;;19.46;64.49
74268;BME280;62638;51.362;12.472;2022-10-22T13:07:47;100141.44;;;19.66;64.52
74268;BME280;62638;51.362;12.472;2022-10-22T13:10:17;100145.03;;;19.86;63.99
74268;BME280;62638;51.362;12.472;2022-10-22T13:12:48;100153.72;;;19.56;63.87
74268;BME280;62638;51.362;12.472;2022-10-22T13:15:20;100148.66;;;19.46;64.26
74268;BME280;62638;51.362;12.472;2022-10-22T13:17:46;100150.94;;;19.42;64.92
74268;BME280;62638;51.362;12.472;2022-10-22T13:20:19;100145.16;;;19.52;64.25
74268;BME280;62638;51.362;12.472;2022-10-22T13:22:56;100146.19;;;19.51;64.99
74268;BME280;62638;51.362;12.472;2022-10-22T13:25:28;100154.13;;;19.59;64.60
74268;BME280;62638;51.362;12.472;2022-10-22T13:28:20;100152.25;;;19.60;64.74
74268;BME280;62638;51.362;12.472;2022-10-22T13:30:55;100147.09;;;19.71;63.85
74268;BME280;62638;51.362;12.472;2022-10-22T13:33:28;100155.25;;;19.78;64.55
74268;BME280;62638;51.362;12.472;2022-10-22T13:35:55;100154.31;;;19.03;66.62
74268;BME280;62638;51.362;12.472;2022-10-22T13:38:23;100154.81;;;18.86;67.55
74268;BME280;62638;51.362;12.472;2022-10-22T13:40:49;100164.53;;;19.01;67.93
74268;BME280;62638;51.362;12.472;2022-10-22T13:43:15;100154.63;;;18.87;67.22
74268;BME280;62638;51.362;12.472;2022-10-22T13:45:42;100160.09;;;18.59;68.00
74268;BME280;62638;51.362;12.472;2022-10-22T13:48:13;100160.75;;;18.68;67.82
74268;BME280;62638;51.362;12.472;2022-10-22T13:50:40;100160.38;;;18.71;67.15
74268;BME280;62638;51.362;12.472;2022-10-22T13:53:08;100163.94;;;18.72;66.36
74268;BME280;62638;51.362;12.472;2022-10-22T13:55:42;100161.22;;;19.06;65.96
74268;BME280;62638;51.362;12.472;2022-10-22T13:58:14;100169.81;;;19.10;64.64
74268;BME280;62638;51.362;12.472;2022-10-22T14:00:47;100157.31;;;19.22;65.28
74268;BME280;62638;51.362;12.472;2022-10-22T14:03:19;100162.63;;;19.36;64.88
74268;BME280;62638;51.362;12.472;2022-10-22T14:05:46;100159.16;;;19.49;64.82
74268;BME280;62638;51.362;12.472;2022-10-22T14:08:14;100157.66;;;19.46;64.42
74268;BME280;62638;51.362;12.472;2022-10-22T14:10:41;100155.09;;;19.38;64.42
74268;BME280;62638;51.362;12.472;2022-10-22T14:13:09;100161.00;;;19.08;65.16
74268;BME280;62638;51.362;12.472;2022-10-22T14:15:35;100167.28;;;19.08;65.45
74268;BME280;62638;51.362;12.472;2022-10-22T14:18:03;100160.63;;;19.11;65.80
74268;BME280;62638;51.362;12.472;2022-10-22T14:20:30;100157.03;;;19.03;67.20